• Join FlightAware (Why Join?)
  • Login
  • US Flag 
01:23AM EDT


 

Airport Tracker/Info


-or-


 

Live Flight TrackerFlight Track Log ✈ DAL6048 ✈ 14-Apr-2013 ✈ KMHT - KLGA

Flight Track Log - Related Links

Times and Time Zones

All times are in EDT time to prevent confusion due to time zone crossing. See the DAL6048 flight status page for this flight to view local times or setup timezone preferences in your user account.

Time Position Orientation Groundspeed Altitude Reporting Facility
EDT Latitude Longitude Course Direction KTS MPH feet Rate Location/Type
09:03AM 42.9500 -71.4333 340° North 153 176 900  Level KA90
09:04AM 42.9833 -71.4500 340° North 189 217 2,900 2,280 Climbing KA90
09:04AM 42.9986 -71.4636 327° Northwest 204 235 3,700 2,400 Climbing Boston Center
09:05AM 43.0325 -71.5256 307° West 210 242 6,000 2,400 Climbing Boston Center
09:06AM 43.0642 -71.5903 304° West 210 242 8,600 2,040 Climbing Boston Center
09:07AM 43.0875 -71.6669 293° West 210 242 10,200 1,680 Climbing Boston Center
09:08AM 43.0297 -71.7272 217° Southwest 201 231 12,000 1,800 Climbing Boston Center
09:09AM 42.9717 -71.7931 220° Southwest 249 287 13,900 1,980 Climbing Boston Center
09:10AM 42.9136 -71.8589 220° Southwest 281 323 16,000 1,920 Climbing Boston Center
09:11AM 42.8556 -71.9217 218° Southwest 281 323 17,800 1,620 Climbing Boston Center
09:12AM 42.8058 -71.9872 224° Southwest 281 323 19,300 1,320 Climbing Boston Center
09:13AM 42.7436 -72.0583 220° Southwest 281 323 20,500  Climbing Boston Center
09:14AM 42.6750 -72.1350 219° Southwest 298 343 19,400 -1,380 Descending Boston Center
09:15AM 42.5939 -72.2228 219° Southwest 337 388 17,900 -1,260 Descending Boston Center
09:16AM 42.5336 -72.2964 222° Southwest 337 388 16,900 -960 Descending Boston Center
09:17AM 42.4692 -72.3725 221° Southwest 327 376 16,100 -480 Descending Boston Center
09:18AM 42.4025 -72.4428 218° Southwest 321 369 16,000  Descending Boston Center
09:19AM 42.3358 -72.5217 221° Southwest 321 369 16,100  Climbing Boston Center
09:20AM 42.2628 -72.6083 221° Southwest 321 369 16,000  Descending Boston Center
09:21AM 42.2064 -72.6981 230° Southwest 321 369 16,100  Climbing Boston Center
09:22AM 42.1561 -72.7789 230° Southwest 316 364 16,000 -60 Descending Boston Center
09:23AM 42.0931 -72.8767 229° Southwest 311 358 16,000  Level Boston Center
09:24AM 42.0386 -72.9628 230° Southwest 316 364 16,000  Level Boston Center
09:25AM 41.9714 -73.0683 229° Southwest 338 389 16,100  Climbing Boston Center
09:26AM 41.9147 -73.1542 228° Southwest 344 396 16,100 -60 Level Boston Center
09:27AM 41.8328 -73.2508 221° Southwest 349 402 16,000  Descending Boston Center
09:28AM 41.7675 -73.3281 221° Southwest 354 407 16,100 -1,140 Climbing Boston Center
09:31AM 41.5667 -73.5333 217° Southwest 335 386 12,200 -1,620 Descending New York TRACON
09:32AM 41.5000 -73.6167 223° Southwest 308 354 10,600 -1,380 Descending New York TRACON
09:33AM 41.4667 -73.6667 228° Southwest 266 306 9,600 -1,200 Descending New York TRACON
09:34AM 41.4000 -73.7333 217° Southwest 252 290 8,300 -1,320 Descending New York TRACON
09:35AM 41.3500 -73.7833 217° Southwest 243 280 7,000 -1,500 Descending New York TRACON
09:36AM 41.2833 -73.7333 151° Southeast 275 316 5,500 -1,320 Descending New York TRACON
09:37AM 41.2167 -73.7000 159° South 254 292 4,300 -720 Descending New York TRACON
09:38AM 41.1500 -73.6667 159° South 258 297 4,000 -120 Descending New York TRACON
09:39AM 41.0833 -73.6500 169° South 252 290 4,100  Climbing New York TRACON
09:40AM 41.0167 -73.6167 159° South 254 292 4,100 -60 Level New York TRACON
09:41AM 40.9500 -73.6333 191° South 234 269 4,000 -360 Descending New York TRACON
09:42AM 40.9000 -73.6667 207° Southwest 228 262 3,400 -600 Descending New York TRACON
09:43AM 40.8500 -73.7167 217° Southwest 225 259 2,800 -480 Descending New York TRACON
09:44AM 40.7833 -73.7333 191° South 213 245 2,500 -180 Descending New York TRACON
09:45AM 40.7500 -73.7667 217° Southwest 172 198 2,500 -660 Level New York TRACON
09:46AM 40.7500 -73.8167 270° West 152 175 1,200 -1,320 Descending New York TRACON
09:48AM 40.7667 -73.8667 180° South  Level FlightAware Approximate
09:55AM 40.7772 -73.8726 180° South  Level Estimated